sensor_id;sensor_type;location;lat;lon;timestamp;pressure;altitude;pressure_sealevel;temperature;humidity
58534;BME280;44109;52.398;7.024;2023-04-03T00:01:10;102901.06;;;3.45;100.00
58534;BME280;44109;52.398;7.024;2023-04-03T00:03:38;102875.47;;;3.29;100.00
58534;BME280;44109;52.398;7.024;2023-04-03T00:06:07;102894.69;;;3.29;100.00
58534;BME280;44109;52.398;7.024;2023-04-03T00:08:37;102897.94;;;3.26;100.00
58534;BME280;44109;52.398;7.024;2023-04-03T00:11:05;102893.00;;;3.18;100.00
58534;BME280;44109;52.398;7.024;2023-04-03T00:13:33;102892.44;;;3.21;100.00
58534;BME280;44109;52.398;7.024;2023-04-03T00:16:03;102904.25;;;3.22;100.00
58534;BME280;44109;52.398;7.024;2023-04-03T00:18:31;102897.41;;;3.29;100.00
58534;BME280;44109;52.398;7.024;2023-04-03T00:20:59;102897.41;;;3.24;100.00
58534;BME280;44109;52.398;7.024;2023-04-03T00:23:26;102904.00;;;3.23;100.00
58534;BME280;44109;52.398;7.024;2023-04-03T00:25:54;102911.09;;;3.19;100.00
58534;BME280;44109;52.398;7.024;2023-04-03T00:28:22;102911.63;;;3.21;100.00
58534;BME280;44109;52.398;7.024;2023-04-03T00:30:50;102911.41;;;3.23;100.00
58534;BME280;44109;52.398;7.024;2023-04-03T00:33:19;102915.50;;;3.25;100.00
58534;BME280;44109;52.398;7.024;2023-04-03T00:35:48;102906.34;;;2.99;100.00
58534;BME280;44109;52.398;7.024;2023-04-03T00:38:16;102913.81;;;3.14;100.00
58534;BME280;44109;52.398;7.024;2023-04-03T00:40:47;102901.41;;;3.01;100.00
58534;BME280;44109;52.398;7.024;2023-04-03T00:43:17;102906.63;;;3.03;100.00
58534;BME280;44109;52.398;7.024;2023-04-03T00:45:48;102913.75;;;3.04;100.00
58534;BME280;44109;52.398;7.024;2023-04-03T00:48:21;102919.19;;;2.94;100.00
58534;BME280;44109;52.398;7.024;2023-04-03T00:50:53;102911.47;;;2.86;100.00
58534;BME280;44109;52.398;7.024;2023-04-03T00:53:23;102909.28;;;2.83;100.00
58534;BME280;44109;52.398;7.024;2023-04-03T00:55:55;102908.41;;;2.77;100.00
58534;BME280;44109;52.398;7.024;2023-04-03T00:58:31;102911.38;;;2.70;100.00
58534;BME280;44109;52.398;7.024;2023-04-03T01:01:05;102911.06;;;2.62;100.00
58534;BME280;44109;52.398;7.024;2023-04-03T01:03:39;102917.31;;;2.52;100.00
58534;BME280;44109;52.398;7.024;2023-04-03T01:06:07;102915.03;;;2.44;100.00
58534;BME280;44109;52.398;7.024;2023-04-03T01:08:35;102919.66;;;2.38;100.00
58534;BME280;44109;52.398;7.024;2023-04-03T01:11:02;102914.72;;;2.35;100.00
58534;BME280;44109;52.398;7.024;2023-04-03T01:13:32;102929.22;;;2.36;100.00
58534;BME280;44109;52.398;7.024;2023-04-03T01:16:01;102923.53;;;2.42;100.00
58534;BME280;44109;52.398;7.024;2023-04-03T01:18:30;102926.19;;;2.32;100.00
58534;BME280;44109;52.398;7.024;2023-04-03T01:21:30;102927.56;;;2.35;100.00
58534;BME280;44109;52.398;7.024;2023-04-03T01:24:33;102925.34;;;2.32;100.00
58534;BME280;44109;52.398;7.024;2023-04-03T01:27:06;102931.41;;;2.34;100.00
58534;BME280;44109;52.398;7.024;2023-04-03T01:29:36;102918.66;;;2.17;100.00
58534;BME280;44109;52.398;7.024;2023-04-03T01:32:06;102929.63;;;2.17;100.00
58534;BME280;44109;52.398;7.024;2023-04-03T01:34:34;102933.25;;;2.23;100.00
58534;BME280;44109;52.398;7.024;2023-04-03T01:37:01;102931.28;;;2.18;100.00
58534;BME280;44109;52.398;7.024;2023-04-03T01:39:29;102927.47;;;2.19;100.00
58534;BME280;44109;52.398;7.024;2023-04-03T01:41:57;102931.34;;;2.23;100.00
58534;BME280;44109;52.398;7.024;2023-04-03T01:44:25;102930.25;;;2.24;100.00
58534;BME280;44109;52.398;7.024;2023-04-03T01:46:52;102929.06;;;2.15;100.00
58534;BME280;44109;52.398;7.024;2023-04-03T01:49:21;102925.75;;;2.13;100.00
58534;BME280;44109;52.398;7.024;2023-04-03T01:51:49;102946.03;;;2.17;100.00
58534;BME280;44109;52.398;7.024;2023-04-03T01:54:17;102943.28;;;2.12;100.00
58534;BME280;44109;52.398;7.024;2023-04-03T01:56:44;102945.91;;;2.02;100.00
58534;BME280;44109;52.398;7.024;2023-04-03T01:59:12;102944.66;;;1.83;100.00
58534;BME280;44109;52.398;7.024;2023-04-03T02:01:39;102944.59;;;1.77;100.00
58534;BME280;44109;52.398;7.024;2023-04-03T02:04:07;102945.81;;;1.65;100.00
58534;BME280;44109;52.398;7.024;2023-04-03T02:06:36;102959.13;;;1.56;100.00
58534;BME280;44109;52.398;7.024;2023-04-03T02:09:04;102959.00;;;1.46;100.00
58534;BME280;44109;52.398;7.024;2023-04-03T02:11:31;102946.09;;;1.41;100.00
58534;BME280;44109;52.398;7.024;2023-04-03T02:13:59;102952.44;;;1.47;100.00
58534;BME280;44109;52.398;7.024;2023-04-03T02:16:26;102953.66;;;1.56;100.00
58534;BME280;44109;52.398;7.024;2023-04-03T02:18:54;102930.25;;;1.43;100.00
58534;BME280;44109;52.398;7.024;2023-04-03T02:21:22;102968.16;;;1.57;100.00
58534;BME280;44109;52.398;7.024;2023-04-03T02:23:51;102967.81;;;1.53;100.00
58534;BME280;44109;52.398;7.024;2023-04-03T02:26:19;102960.06;;;1.45;100.00
58534;BME280;44109;52.398;7.024;2023-04-03T02:28:47;102960.28;;;1.38;100.00
58534;BME280;44109;52.398;7.024;2023-04-03T02:31:15;102961.31;;;1.32;100.00
58534;BME280;44109;52.398;7.024;2023-04-03T02:33:42;102964.28;;;1.31;100.00
58534;BME280;44109;52.398;7.024;2023-04-03T02:36:10;102945.78;;;1.16;100.00
58534;BME280;44109;52.398;7.024;2023-04-03T02:38:38;102963.72;;;1.29;100.00
58534;BME280;44109;52.398;7.024;2023-04-03T02:41:10;102968.16;;;1.35;100.00
58534;BME280;44109;52.398;7.024;2023-04-03T02:43:38;102968.16;;;1.35;100.00
58534;BME280;44109;52.398;7.024;2023-04-03T02:46:06;102976.28;;;1.30;100.00
58534;BME280;44109;52.398;7.024;2023-04-03T02:48:34;102976.72;;;1.21;100.00
58534;BME280;44109;52.398;7.024;2023-04-03T02:51:02;102964.09;;;1.15;100.00
58534;BME280;44109;52.398;7.024;2023-04-03T02:53:30;102966.00;;;1.15;100.00
58534;BME280;44109;52.398;7.024;2023-04-03T02:55:57;102965.22;;;1.19;100.00
58534;BME280;44109;52.398;7.024;2023-04-03T02:58:26;102964.22;;;1.25;100.00
58534;BME280;44109;52.398;7.024;2023-04-03T03:00:54;102970.31;;;1.33;100.00
58534;BME280;44109;52.398;7.024;2023-04-03T03:03:21;102964.88;;;1.33;100.00
58534;BME280;44109;52.398;7.024;2023-04-03T03:05:49;102969.41;;;1.27;100.00
58534;BME280;44109;52.398;7.024;2023-04-03T03:08:17;102953.09;;;1.10;100.00
58534;BME280;44109;52.398;7.024;2023-04-03T03:10:46;102975.00;;;1.15;100.00
58534;BME280;44109;52.398;7.024;2023-04-03T03:13:13;102944.44;;;0.96;100.00
58534;BME280;44109;52.398;7.024;2023-04-03T03:15:42;102974.72;;;0.95;100.00
58534;BME280;44109;52.398;7.024;2023-04-03T03:18:10;102932.72;;;0.45;100.00
58534;BME280;44109;52.398;7.024;2023-04-03T03:20:38;102981.47;;;0.54;100.00
58534;BME280;44109;52.398;7.024;2023-04-03T03:23:05;102978.84;;;0.42;100.00
58534;BME280;44109;52.398;7.024;2023-04-03T03:25:33;102974.25;;;0.31;100.00
58534;BME280;44109;52.398;7.024;2023-04-03T03:28:00;102972.78;;;0.23;100.00
58534;BME280;44109;52.398;7.024;2023-04-03T03:30:28;102975.25;;;0.24;100.00
58534;BME280;44109;52.398;7.024;2023-04-03T03:32:57;102968.31;;;0.17;100.00
58534;BME280;44109;52.398;7.024;2023-04-03T03:35:24;102972.75;;;0.06;100.00
58534;BME280;44109;52.398;7.024;2023-04-03T03:37:52;102976.97;;;-0.03;100.00
58534;BME280;44109;52.398;7.024;2023-04-03T03:40:19;102983.50;;;-0.04;100.00
58534;BME280;44109;52.398;7.024;2023-04-03T03:42:47;102978.22;;;0.06;100.00
58534;BME280;44109;52.398;7.024;2023-04-03T03:45:14;102979.31;;;0.05;100.00
58534;BME280;44109;52.398;7.024;2023-04-03T03:47:42;102972.28;;;0.09;100.00
58534;BME280;44109;52.398;7.024;2023-04-03T03:50:11;102978.13;;;0.01;100.00
58534;BME280;44109;52.398;7.024;2023-04-03T03:52:39;102979.22;;;0.00;100.00
58534;BME280;44109;52.398;7.024;2023-04-03T03:55:07;102982.31;;;-0.08;100.00
58534;BME280;44109;52.398;7.024;2023-04-03T03:57:35;102985.69;;;-0.18;100.00
58534;BME280;44109;52.398;7.024;2023-04-03T04:00:03;102985.69;;;-0.18;100.00
58534;BME280;44109;52.398;7.024;2023-04-03T04:02:33;102986.25;;;-0.16;100.00
58534;BME280;44109;52.398;7.024;2023-04-03T04:05:00;102981.16;;;-0.12;100.00
58534;BME280;44109;52.398;7.024;2023-04-03T04:07:29;102984.38;;;-0.15;100.00
58534;BME280;44109;52.398;7.024;2023-04-03T04:09:57;102994.41;;;-0.04;100.00
58534;BME280;44109;52.398;7.024;2023-04-03T04:12:25;102985.59;;;0.06;100.00
58534;BME280;44109;52.398;7.024;2023-04-03T04:14:52;102998.22;;;0.12;100.00
58534;BME280;44109;52.398;7.024;2023-04-03T04:17:21;102997.88;;;0.08;100.00
58534;BME280;44109;52.398;7.024;2023-04-03T04:19:48;103007.69;;;0.21;100.00
58534;BME280;44109;52.398;7.024;2023-04-03T04:22:16;103013.31;;;0.14;100.00
58534;BME280;44109;52.398;7.024;2023-04-03T04:24:45;103020.88;;;0.12;100.00
58534;BME280;44109;52.398;7.024;2023-04-03T04:27:13;103019.19;;;-0.06;100.00
58534;BME280;44109;52.398;7.024;2023-04-03T04:29:41;103020.22;;;0.05;100.00
58534;BME280;44109;52.398;7.024;2023-04-03T04:32:09;103020.41;;;0.15;100.00
58534;BME280;44109;52.398;7.024;2023-04-03T04:34:36;103022.78;;;0.12;100.00
58534;BME280;44109;52.398;7.024;2023-04-03T04:37:04;103028.31;;;0.00;100.00
58534;BME280;44109;52.398;7.024;2023-04-03T04:39:34;103016.25;;;-0.04;100.00
58534;BME280;44109;52.398;7.024;2023-04-03T04:42:03;103022.75;;;-0.05;100.00
58534;BME280;44109;52.398;7.024;2023-04-03T04:44:31;103023.16;;;-0.13;100.00
58534;BME280;44109;52.398;7.024;2023-04-03T04:46:58;103028.44;;;-0.07;100.00
58534;BME280;44109;52.398;7.024;2023-04-03T04:49:26;103030.44;;;-0.02;100.00
58534;BME280;44109;52.398;7.024;2023-04-03T04:51:54;103029.66;;;-0.14;100.00
58534;BME280;44109;52.398;7.024;2023-04-03T04:54:21;103039.00;;;-0.10;100.00
58534;BME280;44109;52.398;7.024;2023-04-03T04:56:49;103038.34;;;-0.17;100.00
58534;BME280;44109;52.398;7.024;2023-04-03T04:59:18;103014.81;;;-0.35;100.00
58534;BME280;44109;52.398;7.024;2023-04-03T05:01:45;103046.75;;;-0.19;100.00
58534;BME280;44109;52.398;7.024;2023-04-03T05:04:13;103045.53;;;-0.11;100.00
58534;BME280;44109;52.398;7.024;2023-04-03T05:06:41;103045.53;;;-0.11;100.00
58534;BME280;44109;52.398;7.024;2023-04-03T05:09:08;103060.28;;;-0.24;100.00
58534;BME280;44109;52.398;7.024;2023-04-03T05:11:36;103053.75;;;-0.23;100.00
58534;BME280;44109;52.398;7.024;2023-04-03T05:14:04;103053.53;;;-0.21;100.00
58534;BME280;44109;52.398;7.024;2023-04-03T05:16:34;103055.88;;;-0.13;100.00
58534;BME280;44109;52.398;7.024;2023-04-03T05:19:02;103054.91;;;-0.07;100.00
58534;BME280;44109;52.398;7.024;2023-04-03T05:21:30;103062.84;;;-0.06;100.00
58534;BME280;44109;52.398;7.024;2023-04-03T05:23:58;103049.16;;;0.06;100.00
58534;BME280;44109;52.398;7.024;2023-04-03T05:26:29;103057.09;;;0.08;100.00
58534;BME280;44109;52.398;7.024;2023-04-03T05:28:57;103054.06;;;0.21;100.00
58534;BME280;44109;52.398;7.024;2023-04-03T05:31:24;103061.28;;;0.27;100.00
58534;BME280;44109;52.398;7.024;2023-04-03T05:33:56;103061.47;;;0.37;100.00
58534;BME280;44109;52.398;7.024;2023-04-03T05:36:24;103060.66;;;0.37;100.00
58534;BME280;44109;52.398;7.024;2023-04-03T05:38:52;103060.97;;;0.40;100.00
58534;BME280;44109;52.398;7.024;2023-04-03T05:41:22;102994.72;;;-0.01;100.00
58534;BME280;44109;52.398;7.024;2023-04-03T05:43:50;103072.84;;;0.46;100.00
58534;BME280;44109;52.398;7.024;2023-04-03T05:46:19;103064.72;;;0.51;100.00
58534;BME280;44109;52.398;7.024;2023-04-03T05:48:48;103083.63;;;0.69;100.00
58534;BME280;44109;52.398;7.024;2023-04-03T05:51:18;103083.88;;;0.85;100.00
58534;BME280;44109;52.398;7.024;2023-04-03T05:53:52;103082.88;;;1.08;100.00
58534;BME280;44109;52.398;7.024;2023-04-03T05:56:26;103088.97;;;1.32;100.00
58534;BME280;44109;52.398;7.024;2023-04-03T05:58:54;103095.19;;;1.66;100.00
58534;BME280;44109;52.398;7.024;2023-04-03T06:01:22;103090.50;;;1.83;100.00
58534;BME280;44109;52.398;7.024;2023-04-03T06:03:51;103092.22;;;1.89;100.00
58534;BME280;44109;52.398;7.024;2023-04-03T06:06:21;103088.75;;;2.21;100.00
58534;BME280;44109;52.398;7.024;2023-04-03T06:08:49;103093.50;;;2.31;100.00
58534;BME280;44109;52.398;7.024;2023-04-03T06:11:16;103097.75;;;2.43;100.00
58534;BME280;44109;52.398;7.024;2023-04-03T06:13:44;103091.31;;;2.87;100.00
58534;BME280;44109;52.398;7.024;2023-04-03T06:16:12;103099.19;;;3.15;100.00
58534;BME280;44109;52.398;7.024;2023-04-03T06:18:46;103092.47;;;3.33;100.00
58534;BME280;44109;52.398;7.024;2023-04-03T06:21:13;103103.38;;;3.70;100.00
58534;BME280;44109;52.398;7.024;2023-04-03T06:23:42;103097.75;;;3.97;100.00
58534;BME280;44109;52.398;7.024;2023-04-03T06:26:10;103091.13;;;3.93;100.00
58534;BME280;44109;52.398;7.024;2023-04-03T06:28:38;103089.81;;;4.06;100.00
58534;BME280;44109;52.398;7.024;2023-04-03T06:31:05;103103.06;;;4.24;100.00
58534;BME280;44109;52.398;7.024;2023-04-03T06:33:33;103103.66;;;4.62;100.00
58534;BME280;44109;52.398;7.024;2023-04-03T06:36:04;103092.69;;;4.82;100.00
58534;BME280;44109;52.398;7.024;2023-04-03T06:38:32;103095.72;;;5.12;100.00
58534;BME280;44109;52.398;7.024;2023-04-03T06:41:02;103093.53;;;4.88;100.00
58534;BME280;44109;52.398;7.024;2023-04-03T06:43:30;103105.84;;;5.42;100.00
58534;BME280;44109;52.398;7.024;2023-04-03T06:45:58;103105.88;;;5.37;100.00
58534;BME280;44109;52.398;7.024;2023-04-03T06:48:25;103102.53;;;5.40;100.00
58534;BME280;44109;52.398;7.024;2023-04-03T06:50:53;103115.09;;;5.97;100.00
58534;BME280;44109;52.398;7.024;2023-04-03T06:53:21;103117.31;;;5.79;100.00
58534;BME280;44109;52.398;7.024;2023-04-03T06:55:49;103121.34;;;6.13;100.00
58534;BME280;44109;52.398;7.024;2023-04-03T06:58:18;103123.75;;;6.29;100.00
58534;BME280;44109;52.398;7.024;2023-04-03T07:00:45;103129.59;;;6.62;100.00
58534;BME280;44109;52.398;7.024;2023-04-03T07:03:13;103126.72;;;6.82;100.00
58534;BME280;44109;52.398;7.024;2023-04-03T07:05:42;103131.97;;;7.18;100.00
58534;BME280;44109;52.398;7.024;2023-04-03T07:08:10;103140.28;;;7.42;100.00
58534;BME280;44109;52.398;7.024;2023-04-03T07:10:38;103131.69;;;7.73;100.00
58534;BME280;44109;52.398;7.024;2023-04-03T07:13:05;103128.75;;;7.64;93.92
58534;BME280;44109;52.398;7.024;2023-04-03T07:15:34;103135.38;;;7.87;100.00
58534;BME280;44109;52.398;7.024;2023-04-03T07:18:03;103138.91;;;7.69;89.60
58534;BME280;44109;52.398;7.024;2023-04-03T07:20:32;103141.44;;;8.13;100.00
58534;BME280;44109;52.398;7.024;2023-04-03T07:22:59;103141.94;;;8.58;100.00
58534;BME280;44109;52.398;7.024;2023-04-03T07:25:28;103134.78;;;8.57;92.11
58534;BME280;44109;52.398;7.024;2023-04-03T07:27:56;103143.16;;;8.71;83.49
58534;BME280;44109;52.398;7.024;2023-04-03T07:30:23;103147.66;;;9.18;100.00
58534;BME280;44109;52.398;7.024;2023-04-03T07:32:52;103148.97;;;9.67;100.00
58534;BME280;44109;52.398;7.024;2023-04-03T07:35:21;103145.38;;;9.53;84.82
58534;BME280;44109;52.398;7.024;2023-04-03T07:37:48;103153.81;;;9.61;90.51
58534;BME280;44109;52.398;7.024;2023-04-03T07:40:16;103146.44;;;9.98;95.23
58534;BME280;44109;52.398;7.024;2023-04-03T07:42:44;103157.13;;;10.19;86.22
58534;BME280;44109;52.398;7.024;2023-04-03T07:45:12;103140.63;;;10.63;100.00
58534;BME280;44109;52.398;7.024;2023-04-03T07:47:39;103148.88;;;10.55;76.55
58534;BME280;44109;52.398;7.024;2023-04-03T07:50:09;103156.31;;;10.04;64.93
58534;BME280;44109;52.398;7.024;2023-04-03T07:52:36;103149.41;;;10.02;63.20
58534;BME280;44109;52.398;7.024;2023-04-03T07:55:05;103158.16;;;10.36;69.47
58534;BME280;44109;52.398;7.024;2023-04-03T07:57:33;103161.56;;;10.70;75.66
58534;BME280;44109;52.398;7.024;2023-04-03T08:00:01;103160.13;;;10.72;71.23
58534;BME280;44109;52.398;7.024;2023-04-03T08:02:28;103166.81;;;10.93;58.93
58534;BME280;44109;52.398;7.024;2023-04-03T08:04:57;103168.47;;;11.17;66.88
58534;BME280;44109;52.398;7.024;2023-04-03T08:07:27;103171.31;;;11.26;71.70
58534;BME280;44109;52.398;7.024;2023-04-03T08:09:54;103165.63;;;11.62;74.02
58534;BME280;44109;52.398;7.024;2023-04-03T08:12:23;103165.47;;;11.89;64.34
58534;BME280;44109;52.398;7.024;2023-04-03T08:14:50;103169.34;;;12.19;54.08
58534;BME280;44109;52.398;7.024;2023-04-03T08:17:18;103163.66;;;12.33;57.68
58534;BME280;44109;52.398;7.024;2023-04-03T08:19:45;103161.94;;;11.75;44.31
58534;BME280;44109;52.398;7.024;2023-04-03T08:22:13;103167.78;;;11.65;45.23
58534;BME280;44109;52.398;7.024;2023-04-03T08:24:43;103159.69;;;11.46;49.41
58534;BME280;44109;52.398;7.024;2023-04-03T08:27:11;103163.09;;;11.43;47.79
58534;BME280;44109;52.398;7.024;2023-04-03T08:29:38;103164.88;;;12.01;48.83
58534;BME280;44109;52.398;7.024;2023-04-03T08:32:06;103167.28;;;11.94;49.79
58534;BME280;44109;52.398;7.024;2023-04-03T08:34:34;103154.34;;;11.89;43.86
58534;BME280;44109;52.398;7.024;2023-04-03T08:37:02;103153.03;;;12.35;47.62
58534;BME280;44109;52.398;7.024;2023-04-03T08:39:30;103168.31;;;12.81;47.39
58534;BME280;44109;52.398;7.024;2023-04-03T08:42:03;103170.09;;;12.68;46.87
58534;BME280;44109;52.398;7.024;2023-04-03T08:44:39;103162.66;;;12.29;43.37
58534;BME280;44109;52.398;7.024;2023-04-03T08:47:20;103167.13;;;12.56;46.39
58534;BME280;44109;52.398;7.024;2023-04-03T08:49:54;103168.59;;;12.45;42.70
58534;BME280;44109;52.398;7.024;2023-04-03T08:52:30;103162.31;;;12.22;40.68
58534;BME280;44109;52.398;7.024;2023-04-03T08:55:05;103167.25;;;12.34;40.59
58534;BME280;44109;52.398;7.024;2023-04-03T08:57:44;103151.31;;;12.17;40.09
58534;BME280;44109;52.398;7.024;2023-04-03T09:00:18;103160.03;;;12.24;39.16
58534;BME280;44109;52.398;7.024;2023-04-03T09:02:49;103140.06;;;12.22;37.96
58534;BME280;44109;52.398;7.024;2023-04-03T09:05:19;103157.59;;;12.31;38.68
58534;BME280;44109;52.398;7.024;2023-04-03T09:07:58;103165.94;;;12.31;36.81
58534;BME280;44109;52.398;7.024;2023-04-03T09:10:33;103158.00;;;12.07;38.33
58534;BME280;44109;52.398;7.024;2023-04-03T09:13:09;103163.91;;;11.75;36.28
58534;BME280;44109;52.398;7.024;2023-04-03T09:15:40;103165.59;;;11.53;38.10
58534;BME280;44109;52.398;7.024;2023-04-03T09:18:13;103162.75;;;11.13;33.25
58534;BME280;44109;52.398;7.024;2023-04-03T09:20:52;103160.41;;;11.07;35.17
58534;BME280;44109;52.398;7.024;2023-04-03T09:23:28;103174.66;;;11.36;39.47
58534;BME280;44109;52.398;7.024;2023-04-03T09:26:02;103175.22;;;11.78;40.45
58534;BME280;44109;52.398;7.024;2023-04-03T09:28:35;103157.91;;;11.50;39.40
58534;BME280;44109;52.398;7.024;2023-04-03T09:31:15;103154.75;;;11.43;36.66
58534;BME280;44109;52.398;7.024;2023-04-03T09:33:48;103153.59;;;11.44;35.39
58534;BME280;44109;52.398;7.024;2023-04-03T09:36:43;103157.50;;;11.97;39.79
58534;BME280;44109;52.398;7.024;2023-04-03T09:39:15;103157.34;;;12.02;41.18
58534;BME280;44109;52.398;7.024;2023-04-03T09:41:56;103145.13;;;11.80;37.93
58534;BME280;44109;52.398;7.024;2023-04-03T09:44:30;103162.72;;;11.67;39.75
58534;BME280;44109;52.398;7.024;2023-04-03T09:46:59;103166.88;;;11.78;40.99
58534;BME280;44109;52.398;7.024;2023-04-03T09:49:44;103148.22;;;11.79;41.17
58534;BME280;44109;52.398;7.024;2023-04-03T09:52:19;103154.34;;;11.58;41.35
58534;BME280;44109;52.398;7.024;2023-04-03T09:54:50;103160.34;;;11.52;41.08
58534;BME280;44109;52.398;7.024;2023-04-03T09:57:17;103153.50;;;11.58;42.69
58534;BME280;44109;52.398;7.024;2023-04-03T09:59:56;103124.22;;;11.21;40.98
58534;BME280;44109;52.398;7.024;2023-04-03T10:02:34;103147.19;;;11.12;39.48
58534;BME280;44109;52.398;7.024;2023-04-03T10:05:29;103142.72;;;11.25;41.83
58534;BME280;44109;52.398;7.024;2023-04-03T10:08:15;103131.84;;;11.37;44.46
58534;BME280;44109;52.398;7.024;2023-04-03T10:11:07;103145.56;;;11.11;39.14
58534;BME280;44109;52.398;7.024;2023-04-03T10:13:50;103140.06;;;10.98;41.15
58534;BME280;44109;52.398;7.024;2023-04-03T10:16:24;103137.94;;;10.95;41.96
58534;BME280;44109;52.398;7.024;2023-04-03T10:19:06;103142.91;;;10.84;39.13
58534;BME280;44109;52.398;7.024;2023-04-03T10:21:46;103132.63;;;11.07;41.64
58534;BME280;44109;52.398;7.024;2023-04-03T10:24:21;103138.50;;;11.28;41.98
58534;BME280;44109;52.398;7.024;2023-04-03T10:26:57;103133.47;;;11.38;39.92
58534;BME280;44109;52.398;7.024;2023-04-03T10:29:39;103125.31;;;11.42;41.29
58534;BME280;44109;52.398;7.024;2023-04-03T10:32:32;103113.03;;;11.12;42.58
58534;BME280;44109;52.398;7.024;2023-04-03T10:35:18;103127.81;;;10.76;40.79
58534;BME280;44109;52.398;7.024;2023-04-03T10:38:02;103118.47;;;10.50;39.44
58534;BME280;44109;52.398;7.024;2023-04-03T10:40:44;103122.91;;;10.73;39.40
58534;BME280;44109;52.398;7.024;2023-04-03T10:43:27;103107.56;;;10.98;40.90
58534;BME280;44109;52.398;7.024;2023-04-03T10:46:05;103116.53;;;10.95;39.20
58534;BME280;44109;52.398;7.024;2023-04-03T10:49:05;103125.44;;;11.06;40.82
58534;BME280;44109;52.398;7.024;2023-04-03T10:51:48;103108.22;;;10.95;42.77
58534;BME280;44109;52.398;7.024;2023-04-03T10:54:24;103105.84;;;11.11;42.29
58534;BME280;44109;52.398;7.024;2023-04-03T10:56:56;103110.97;;;10.73;41.29
58534;BME280;44109;52.398;7.024;2023-04-03T10:59:31;103120.41;;;10.72;41.35
58534;BME280;44109;52.398;7.024;2023-04-03T11:02:06;103115.31;;;10.65;43.50
58534;BME280;44109;52.398;7.024;2023-04-03T11:04:40;103106.75;;;10.75;43.65
58534;BME280;44109;52.398;7.024;2023-04-03T11:07:15;103109.25;;;10.85;40.46
58534;BME280;44109;52.398;7.024;2023-04-03T11:09:46;103103.06;;;11.11;42.06
58534;BME280;44109;52.398;7.024;2023-04-03T11:12:19;103098.13;;;11.08;39.73
58534;BME280;44109;52.398;7.024;2023-04-03T11:14:53;103109.03;;;10.96;39.02
58534;BME280;44109;52.398;7.024;2023-04-03T11:17:31;103092.19;;;10.33;38.74
58534;BME280;44109;52.398;7.024;2023-04-03T11:20:10;103092.09;;;10.61;41.35
58534;BME280;44109;52.398;7.024;2023-04-03T11:22:50;103093.44;;;10.63;43.04
58534;BME280;44109;52.398;7.024;2023-04-03T11:25:23;103090.75;;;10.36;41.72
58534;BME280;44109;52.398;7.024;2023-04-03T11:27:56;103099.28;;;10.12;42.56
58534;BME280;44109;52.398;7.024;2023-04-03T11:30:30;103090.56;;;10.05;41.80
58534;BME280;44109;52.398;7.024;2023-04-03T11:33:21;103072.91;;;10.01;41.78
58534;BME280;44109;52.398;7.024;2023-04-03T11:35:59;103075.66;;;10.28;40.42
58534;BME280;44109;52.398;7.024;2023-04-03T11:38:34;103071.16;;;10.55;39.91
58534;BME280;44109;52.398;7.024;2023-04-03T11:41:08;103070.41;;;10.40;41.89
58534;BME280;44109;52.398;7.024;2023-04-03T11:43:40;103071.16;;;10.05;43.18
58534;BME280;44109;52.398;7.024;2023-04-03T11:46:10;103061.19;;;9.90;44.98
58534;BME280;44109;52.398;7.024;2023-04-03T11:48:50;103059.78;;;9.93;44.27
58534;BME280;44109;52.398;7.024;2023-04-03T11:51:42;103066.78;;;10.40;45.67
58534;BME280;44109;52.398;7.024;2023-04-03T11:57:46;103061.44;;;10.88;42.45
58534;BME280;44109;52.398;7.024;2023-04-03T12:00:59;103065.59;;;11.00;44.14
58534;BME280;44109;52.398;7.024;2023-04-03T12:07:00;103047.69;;;11.46;42.31
58534;BME280;44109;52.398;7.024;2023-04-03T12:10:01;103051.19;;;11.60;38.92
58534;BME280;44109;52.398;7.024;2023-04-03T12:12:42;103038.56;;;11.54;42.28
58534;BME280;44109;52.398;7.024;2023-04-03T12:15:41;103042.06;;;11.77;43.09
58534;BME280;44109;52.398;7.024;2023-04-03T12:18:57;103049.31;;;11.86;41.05
58534;BME280;44109;52.398;7.024;2023-04-03T12:24:40;103039.19;;;12.08;38.60
58534;BME280;44109;52.398;7.024;2023-04-03T12:27:20;103023.38;;;11.60;39.20
58534;BME280;44109;52.398;7.024;2023-04-03T12:29:56;103036.03;;;11.35;38.92
58534;BME280;44109;52.398;7.024;2023-04-03T12:33:02;103030.84;;;11.42;39.15
58534;BME280;44109;52.398;7.024;2023-04-03T12:35:47;103025.34;;;11.59;40.63
58534;BME280;44109;52.398;7.024;2023-04-03T12:38:45;103026.31;;;11.55;40.81
58534;BME280;44109;52.398;7.024;2023-04-03T12:41:32;103019.88;;;11.37;40.94
58534;BME280;44109;52.398;7.024;2023-04-03T12:44:24;103029.44;;;11.71;40.06
58534;BME280;44109;52.398;7.024;2023-04-03T12:47:23;103027.25;;;11.10;40.02
58534;BME280;44109;52.398;7.024;2023-04-03T12:49:56;103022.38;;;11.16;40.35
58534;BME280;44109;52.398;7.024;2023-04-03T12:52:32;103015.31;;;11.41;42.79
58534;BME280;44109;52.398;7.024;2023-04-03T12:55:14;102998.38;;;11.20;40.83
58534;BME280;44109;52.398;7.024;2023-04-03T12:57:43;102989.66;;;11.53;42.08
58534;BME280;44109;52.398;7.024;2023-04-03T13:00:28;103003.75;;;11.56;40.41
58534;BME280;44109;52.398;7.024;2023-04-03T13:02:59;102998.78;;;12.02;42.09
58534;BME280;44109;52.398;7.024;2023-04-03T13:05:28;102982.28;;;12.14;40.12
58534;BME280;44109;52.398;7.024;2023-04-03T13:08:00;102983.00;;;11.71;39.96
58534;BME280;44109;52.398;7.024;2023-04-03T13:10:32;102991.22;;;11.28;39.45
58534;BME280;44109;52.398;7.024;2023-04-03T13:13:18;102987.34;;;11.37;39.78
58534;BME280;44109;52.398;7.024;2023-04-03T13:15:47;102992.72;;;11.91;39.43
58534;BME280;44109;52.398;7.024;2023-04-03T13:18:28;102989.75;;;12.57;37.83
58534;BME280;44109;52.398;7.024;2023-04-03T13:21:03;102980.94;;;12.11;38.74
58534;BME280;44109;52.398;7.024;2023-04-03T13:23:36;102980.72;;;12.68;38.33
58534;BME280;44109;52.398;7.024;2023-04-03T13:26:09;102982.91;;;13.48;41.14